• Join FlightAware (Why Join?)
  • Login
  • US Flag 
06:57PM EDT


 

Airport Tracker/Info


-or-


 

Live Flight TrackerFlight Track Log ✈ DAL3799 ✈ 03-May-2013 ✈ KATL - KOKC

Flight Track Log - Related Links

Times and Time Zones

All times are in EDT time to prevent confusion due to time zone crossing. See the DAL3799 flight status page for this flight to view local times or setup timezone preferences in your user account.

Time Position Orientation Groundspeed Altitude Reporting Facility
EDT Latitude Longitude Course Direction KTS MPH feet Rate Location/Type
09:15AM 33.6500 -84.3667 252° West 161 185 3,300  Level Atlanta TRACON
09:16AM 33.6667 -84.3000 73° East 228 262 5,200 2,400 Climbing Atlanta TRACON
09:17AM 33.7333 -84.2833 12° North 294 338 8,100 2,340 Climbing Atlanta TRACON
09:18AM 33.8001 -84.5095 270° West  Level FlightAware Approximate
09:19AM 33.7915 -84.6476 252° West  Level FlightAware Approximate
09:20AM 33.7549 -84.7802 252° West  Level FlightAware Approximate
09:20AM 33.8125 -84.4364 302° West 290 334 12,500  Level Atlanta Center
09:21AM 33.7182 -84.9126 252° West  Level FlightAware Approximate
09:21AM 33.8078 -84.5839 268° West 380 437 13,900  Level Atlanta Center
09:22AM 33.7800 -84.7136 256° West 385 443 16,500 2,100 Climbing Atlanta Center
09:23AM 33.7456 -84.8483 253° West 403 464 18,100 1,620 Climbing Atlanta Center
09:24AM 33.7133 -84.9803 254° West 413 475 19,800 1,320 Climbing Atlanta Center
09:25AM 33.6769 -85.1172 252° West 423 487 20,800 1,260 Climbing Atlanta Center
09:26AM 33.6506 -85.2592 257° West 428 493 22,400 1,800 Climbing Atlanta Center
09:27AM 33.6531 -85.4064 271° West 439 505 24,500 1,680 Climbing Atlanta Center
09:28AM 33.6642 -85.5364 276° West 439 505 25,800 1,140 Climbing Atlanta Center
09:29AM 33.6936 -85.6817 284° West 444 511 26,800 960 Climbing Atlanta Center
09:30AM 33.7186 -85.8244 282° West 450 518 27,800 1,200 Climbing Atlanta Center
09:31AM 33.7478 -85.9700 284° West 450 518 29,200 1,440 Climbing Atlanta Center
09:32AM 33.7725 -86.1156 282° West 450 518 30,700 1,500 Climbing Atlanta Center
09:33AM 33.8014 -86.2586 284° West 445 512 32,300 1,140 Climbing Atlanta Center
09:34AM 33.8281 -86.3994 283° West 445 512 33,000 600 Climbing Atlanta Center
09:35AM 33.8542 -86.5478 282° West 445 512 33,600 480 Climbing Atlanta Center
09:36AM 33.8825 -86.7011 283° West 457 526 34,000 180 Climbing Atlanta Center
09:37AM 33.9103 -86.8547 282° West 463 533 34,000  Level Atlanta Center
09:39AM 33.9742 -87.2111 282° West 483 556 34,000  Level Memphis Center
09:40AM 34.0075 -87.3828 283° West 468 539 34,000  Level Memphis Center
09:41AM 34.0364 -87.5447 282° West 474 545 34,000  Level Memphis Center
09:42AM 34.0608 -87.6994 281° West 479 551 34,000  Level Memphis Center
09:43AM 34.0867 -87.8492 282° West 479 551 34,000 60 Level Memphis Center
09:44AM 34.1128 -88.0014 282° West 466 536 34,200 300 Climbing Memphis Center
09:45AM 34.1383 -88.1386 283° West 466 536 34,600 600 Climbing Memphis Center
09:46AM 34.1642 -88.3164 280° West 486 559 35,500 900 Climbing Memphis Center
09:47AM 34.1894 -88.4689 281° West 481 554 36,400 960 Climbing Memphis Center
09:48AM 34.2169 -88.6214 282° West 476 548 37,500 780 Climbing Memphis Center
09:49AM 34.2397 -88.7692 281° West 465 535 38,000 240 Climbing Memphis Center
09:50AM 34.2644 -88.9119 282° West 454 522 38,000  Level Memphis Center
09:51AM 34.2869 -89.0650 280° West 448 516 38,000  Level Memphis Center
09:52AM 34.3114 -89.2106 282° West 448 516 38,000  Level Memphis Center
09:53AM 34.3336 -89.3561 281° West 448 516 38,000  Level Memphis Center
09:54AM 34.3575 -89.5042 281° West 448 516 38,000  Level Memphis Center
09:55AM 34.3814 -89.6550 281° West 448 516 38,000  Level Memphis Center
09:56AM 34.4031 -89.8083 280° West 453 521 38,000  Level Memphis Center
09:57AM 34.4267 -89.9442 282° West 461 531 38,000  Level Memphis Center
09:58AM 34.4500 -90.0953 281° West 461 531 38,000  Level Memphis Center
09:59AM 34.4731 -90.2464 281° West 468 539 38,000  Level Memphis Center
10:00AM 34.4983 -90.3975 282° West 468 539 38,000  Level Memphis Center
10:01AM 34.5211 -90.5614 280° West 468 539 38,000  Level Memphis Center
10:02AM 34.5458 -90.7153 281° West 463 533 38,000  Level Memphis Center
10:03AM 34.5642 -90.8589 279° West 456 525 38,000  Level Memphis Center
10:04AM 34.5883 -91.0056 281° West 442 509 38,000  Level Memphis Center
10:05AM 34.6083 -91.1519 279° West 452 520 38,000  Level Memphis Center
10:06AM 34.6283 -91.3011 279° West 452 520 38,000  Level Memphis Center
10:07AM 34.6522 -91.4503 281° West 452 520 38,000  Level Memphis Center
10:08AM 34.6758 -91.5997 281° West 452 520 38,000  Level Memphis Center
10:09AM 34.6911 -91.7311 278° West 447 514 38,000  Level Memphis Center
10:10AM 34.7122 -91.8806 280° West 447 514 38,000  Level Memphis Center
10:11AM 34.7311 -92.0325 279° West 452 520 38,000  Level Memphis Center
10:12AM 34.7519 -92.1819 280° West 452 520 38,000  Level Memphis Center
10:13AM 34.7728 -92.3317 280° West 452 520 38,000  Level Memphis Center
10:14AM 34.7931 -92.4839 279° West 452 520 38,000  Level Memphis Center
10:15AM 34.8114 -92.6361 278° West 452 520 38,000  Level Memphis Center
10:16AM 34.8333 -92.8036 279° West 452 520 38,000  Level Memphis Center
10:17AM 34.8531 -92.9586 279° West 457 526 38,000  Level Memphis Center
10:18AM 34.8728 -93.1111 279° West 462 532 38,000  Level Memphis Center
10:19AM 34.8922 -93.2661 279° West 467 537 38,000  Level Memphis Center
10:20AM 34.9094 -93.4136 278° West 467 537 38,000  Level Memphis Center
10:21AM 34.9306 -93.5739 279° West 467 537 38,000  Level Memphis Center
10:22AM 34.9514 -93.7292 279° West 467 537 38,000  Level Memphis Center
10:23AM 34.9700 -93.8844 278° West 467 537 38,000  Level Memphis Center
10:24AM 34.9864 -94.0372 278° West 467 537 38,000  Level Memphis Center
10:25AM 35.0047 -94.1928 278° West 467 537 38,000  Level Memphis Center
10:26AM 35.0250 -94.3483 279° West 467 537 38,000 -60 Level Memphis Center
10:27AM 35.0408 -94.5014 277° West 467 537 37,900  Descending Memphis Center
10:27AM 35.0503 -94.5503 283° West 468 539 38,000 60 Climbing Fort Worth Center
10:28AM 35.0639 -94.6944 277° West 478 550 38,000  Level Fort Worth Center
10:29AM 35.0817 -94.8461 278° West 473 544 38,000  Level Fort Worth Center
10:30AM 35.0994 -95.0028 278° West 473 544 38,000 -360 Level Fort Worth Center
10:31AM 35.1147 -95.1522 277° West 459 528 37,300 -1,440 Descending Fort Worth Center
10:32AM 35.1300 -95.3067 277° West 459 528 35,200 -2,100 Descending Fort Worth Center
10:33AM 35.1492 -95.4558 279° West 459 528 33,200 -2,040 Descending Fort Worth Center
10:34AM 35.1639 -95.6081 277° West 459 528 31,200 -2,040 Descending Fort Worth Center
10:35AM 35.1786 -95.7650 277° West 464 534 29,200 -2,100 Descending Fort Worth Center
10:36AM 35.1953 -95.9275 277° West 456 525 27,000 -2,100 Descending Fort Worth Center
10:37AM 35.2114 -96.0769 278° West 450 518 25,000 -2,040 Descending Fort Worth Center
10:38AM 35.2233 -96.2242 276° West 443 510 23,000 -2,040 Descending Fort Worth Center
10:39AM 35.2392 -96.3611 278° West 437 503 21,000 -2,040 Descending Fort Worth Center
10:40AM 35.2528 -96.4958 277° West 421 484 19,000 -1,860 Descending Fort Worth Center
10:41AM 35.2661 -96.6278 277° West 403 464 17,300 -1,860 Descending Fort Worth Center
10:42AM 35.2750 -96.7347 276° West 384 442 15,700 -2,040 Descending Fort Worth Center
10:43AM 35.2800 -96.8592 273° West 361 415 13,700 -1,920 Descending Fort Worth Center
10:44AM 35.2783 -96.9686 269° West 318 366 11,800 -1,500 Descending Fort Worth Center
10:45AM 35.2744 -97.0653 267° West 265 305 10,700 -1,740 Descending Fort Worth Center
10:46AM 35.2664 -97.1744 265° West 271 312 8,200 -1,980 Descending Fort Worth Center
10:47AM 35.2603 -97.2661 265° West 269 310 6,500 -1,680 Descending Fort Worth Center
10:48AM 35.2539 -97.3525 265° West 252 290 4,800 -1,260 Descending Fort Worth Center
10:49AM 35.2497 -97.4314 266° West 234 269 4,000 -540 Descending Fort Worth Center
10:50AM 35.2519 -97.5050 272° West 207 238 3,800 -360 Descending Fort Worth Center
10:51AM 35.2686 -97.5661 288° West 220 253 3,300 -540 Descending Fort Worth Center